Home   Weather   Fairfield   Past weeks
Flag for USA

Past Weather in Fairfield, Georgia, USA — Yesterday and Last 2 Weeks

Currently: 62 °F. Clear. (Weather station: Fulton County Airport-Brown Field, USA). See more current weather

Past Weather in Fairfield — Graph

°F

Fairfield Temperature Yesterday

Maximum temperature yesterday: 84 °F (at 2:53 pm)
Minimum temperature yesterday: 70 °F (at 12:53 am)
Average temperature yesterday: 74 °F

High & Low Weather Summary for the Past Weeks

 TemperatureHumidityPressure
High89 °F (Sep 14, 3:53 pm)100% (Sep 18, 11:53 pm)30.30 "Hg (Sep 18, 11:53 pm)
Low58 °F (Sep 10, 4:53 am)37% (Sep 9, 4:53 pm)29.82 "Hg (Sep 9, 3:53 am)
Average73 °F83%30.05 "Hg
* Reported Sep 7 9:53 pm — Sep 22 9:53 pm, Fairfield. Weather by CustomWeather, © 2021

Note: Actual official high and low records may vary slightly from our data, if they occured in-between our weather recording intervals... More about our weather records

Fairfield Weather History for the Previous 24 Hours

Scroll right to see more
 ConditionsComfort  
Time TempWeatherWind HumidityBarometerVisibility
9:53 pm
Wed, Sep 22
64 °FClear.8 mph70%29.99 "Hg10 mi
8:53 pm64 °FClear.6 mph75%29.96 "Hg10 mi
7:53 pm66 °FPassing clouds.No wind65%29.93 "Hg10 mi
6:53 pm70 °FSunny.14 mph57%29.93 "Hg10 mi
5:53 pm72 °FPassing clouds.14 mph57%29.92 "Hg10 mi
4:53 pm74 °FPassing clouds.15 mph57%29.91 "Hg10 mi
3:53 pm72 °FScattered clouds.13 mph64%29.91 "Hg10 mi
3:16 pm71 °FScattered clouds.13 mph63%29.94 "Hg10 mi
2:53 pm71 °FPartly sunny.13 mph66%29.92 "Hg10 mi
1:53 pm73 °FPassing clouds.15 mph59%29.93 "Hg10 mi
1:00 pm68 °FPartly sunny.7 mph84%29.97 "Hg10 mi
11:53 am67 °FLight rain. Mostly cloudy.10 mph87%29.95 "Hg10 mi
10:53 am75 °FMostly cloudy.6 mph85%29.92 "Hg10 mi
9:53 am74 °FMostly cloudy.8 mph88%29.92 "Hg10 mi
8:53 am73 °FFog.6 mph90%29.93 "Hg5 mi
7:53 am73 °FFog.5 mph94%29.92 "Hg4 mi
6:53 am72 °FFog.3 mph93%29.91 "Hg10 mi
5:53 am72 °FFog.3 mph93%29.92 "Hg6 mi
5:09 am72 °FFog.No wind93%29.96 "Hg5 mi
4:53 am72 °FFog.No wind97%29.93 "Hg5 mi
3:53 am72 °FLow clouds.3 mph93%29.94 "Hg10 mi
2:53 am72 °FLow clouds.3 mph91%29.96 "Hg10 mi
1:53 am72 °FLow clouds.No wind91%29.99 "Hg10 mi
1:34 am72 °FLow clouds.3 mph91%30.02 "Hg10 mi
12:53 am72 °FOvercast.5 mph87%30.00 "Hg10 mi
12:25 am71 °FPassing clouds.3 mph90%30.05 "Hg10 mi
11:53 pm
Tue, Sep 21
72 °FPassing clouds.No wind87%30.02 "Hg10 mi
11:29 pm72 °FPassing clouds.5 mph87%30.05 "Hg10 mi
11:22 pm72 °FPassing clouds.3 mph87%30.06 "Hg10 mi
11:10 pm72 °FPassing clouds.3 mph87%30.06 "Hg10 mi
Weather by CustomWeather, © 2021

See weather overview